Time;durP1;ratioP1;P1;durP2;ratioP2;P2;SDS_P1;SDS_P2;PMS_P1;PMS_P2;Temp;Humidity;BMP_temperature;BMP_pressure;BME280_temperature;BME280_humidity;BME280_pressure;Samples;Min_cycle;Max_cycle;Signal;HPM_P1;HPM_P2
2021/05/25 00:01:11;;;;;;;;;;;19.90;56.40;;;;;;4975879;28;1156;-70
2021/05/25 00:03:36;;;;;;;;;;;19.90;56.40;;;;;;4975775;28;1958;-70
2021/05/25 00:06:02;;;;;;;;;;;19.90;56.40;;;;;;4975301;28;1116;-70
2021/05/25 00:08:27;;;;;;;;;;;19.90;56.40;;;;;;4975966;28;1136;-70
2021/05/25 00:10:53;;;;;;;;;;;19.90;56.40;;;;;;4975382;28;1202;-70
2021/05/25 00:13:18;;;;;;;;;;;19.90;56.40;;;;;;4975852;28;1037;-70
2021/05/25 00:15:44;;;;;;;;;;;19.90;56.40;;;;;;4974036;28;1187;-70
2021/05/25 00:18:09;;;;;;;;;;;19.90;56.50;;;;;;4974470;28;1254;-70
2021/05/25 00:20:35;;;;;;;;;;;19.90;56.50;;;;;;4970492;28;1249;-70
2021/05/25 00:23:00;;;;;;;;;;;19.90;56.50;;;;;;4974060;28;1898;-70
2021/05/25 00:25:25;;;;;;;;;;;19.80;56.50;;;;;;4975009;28;1092;-70
2021/05/25 00:27:53;;;;;;;;;;;19.90;56.60;;;;;;4975512;28;1130;-70
2021/05/25 00:30:18;;;;;;;;;;;19.90;56.60;;;;;;4974843;28;1189;-70
2021/05/25 00:32:44;;;;;;;;;;;19.90;56.60;;;;;;4974078;28;1106;-70
2021/05/25 00:35:09;;;;;;;;;;;19.90;56.60;;;;;;4974423;28;1096;-71
2021/05/25 00:37:35;;;;;;;;;;;19.90;56.60;;;;;;4975362;28;1148;-68
2021/05/25 00:40:00;;;;;;;;;;;19.90;56.60;;;;;;4975330;28;1263;-69
2021/05/25 00:42:26;;;;;;;;;;;19.80;56.60;;;;;;4974975;28;1910;-69
2021/05/25 00:44:51;;;;;;;;;;;19.90;56.70;;;;;;4973825;28;1104;-68
2021/05/25 00:47:27;;;;;;;;;;;19.90;56.70;;;;;;4973825;28;1042;-69
2021/05/25 00:49:52;;;;;;;;;;;19.80;56.70;;;;;;4973948;28;1312;-69
2021/05/25 00:52:17;;;;;;;;;;;19.80;56.70;;;;;;4974925;28;1133;-68
2021/05/25 00:54:43;;;;;;;;;;;19.80;56.70;;;;;;4974126;28;1183;-68
2021/05/25 00:57:08;;;;;;;;;;;19.80;56.70;;;;;;4975085;28;1118;-68
2021/05/25 00:59:34;;;;;;;;;;;19.80;56.70;;;;;;4973411;28;1333;-68
2021/05/25 01:01:59;;;;;;;;;;;19.90;56.80;;;;;;4973457;28;1898;-69
2021/05/25 01:04:25;;;;;;;;;;;19.80;56.80;;;;;;4974193;28;1100;-69
2021/05/25 01:06:50;;;;;;;;;;;19.80;56.80;;;;;;4974524;28;1128;-68
2021/05/25 01:09:17;;;;;;;;;;;19.80;56.80;;;;;;4974849;28;1251;-69
2021/05/25 01:11:43;;;;;;;;;;;19.80;56.80;;;;;;4974496;28;1068;-70
2021/05/25 01:14:09;;;;;;;;;;;19.80;56.80;;;;;;4973039;28;1073;-69
2021/05/25 01:16:35;;;;;;;;;;;19.80;56.90;;;;;;4973989;28;1110;-68
2021/05/25 01:19:00;;;;;;;;;;;19.80;56.80;;;;;;4974428;28;1289;-68
2021/05/25 01:21:26;;;;;;;;;;;19.80;56.90;;;;;;4970050;28;1072;-70
2021/05/25 01:23:51;;;;;;;;;;;19.80;56.90;;;;;;4973387;28;1906;-68
2021/05/25 01:26:18;;;;;;;;;;;19.80;57.50;;;;;;4973151;28;1086;-70
2021/05/25 01:28:44;;;;;;;;;;;19.80;56.90;;;;;;4972639;28;1141;-70
2021/05/25 01:31:09;;;;;;;;;;;19.80;56.90;;;;;;4973314;28;1256;-68
2021/05/25 01:33:37;;;;;;;;;;;19.80;57.00;;;;;;4974297;28;1104;-70
2021/05/25 01:36:04;;;;;;;;;;;19.80;57.00;;;;;;4974125;28;1010;-70
2021/05/25 01:38:29;;;;;;;;;;;19.80;57.00;;;;;;4974275;28;1143;-70
2021/05/25 01:40:57;;;;;;;;;;;19.80;57.00;;;;;;4974111;28;1209;-70
2021/05/25 01:43:23;;;;;;;;;;;19.80;57.00;;;;;;4973856;28;1914;-70
2021/05/25 01:45:49;;;;;;;;;;;19.80;57.10;;;;;;4972404;28;1125;-70
2021/05/25 01:48:14;;;;;;;;;;;19.80;57.00;;;;;;4972252;28;1090;-70
2021/05/25 01:50:40;;;;;;;;;;;19.80;57.00;;;;;;4974130;28;1275;-70
2021/05/25 01:53:06;;;;;;;;;;;19.80;57.10;;;;;;4974394;28;1115;-70
2021/05/25 01:55:38;;;;;;;;;;;19.80;57.10;;;;;;4973241;28;1264;-70
2021/05/25 01:58:07;;;;;;;;;;;19.80;57.10;;;;;;4973493;28;1097;-70
2021/05/25 02:00:33;;;;;;;;;;;19.80;57.10;;;;;;4972826;28;1267;-70
2021/05/25 02:02:58;;;;;;;;;;;19.80;57.10;;;;;;4973888;28;2059;-70
2021/05/25 02:05:24;;;;;;;;;;;19.80;57.10;;;;;;4974021;28;1171;-70
2021/05/25 02:07:49;;;;;;;;;;;19.80;57.10;;;;;;4973883;28;1300;-70
2021/05/25 02:10:41;;;;;;;;;;;19.80;57.10;;;;;;4973732;28;1226;-70
2021/05/25 02:13:07;;;;;;;;;;;19.80;57.20;;;;;;4971209;28;1137;-70
2021/05/25 02:15:33;;;;;;;;;;;19.80;57.20;;;;;;4971914;28;1381;-70
2021/05/25 02:18:11;;;;;;;;;;;19.80;57.10;;;;;;4972660;28;1066;-70
2021/05/25 02:20:37;;;;;;;;;;;19.80;57.20;;;;;;4967331;28;1367;-70
2021/05/25 02:23:03;;;;;;;;;;;19.80;57.20;;;;;;4973549;28;1906;-70
2021/05/25 02:25:28;;;;;;;;;;;19.70;57.20;;;;;;4971383;28;1156;-70
2021/05/25 02:27:54;;;;;;;;;;;19.80;57.20;;;;;;4973546;28;1104;-70
2021/05/25 02:30:19;;;;;;;;;;;19.80;57.20;;;;;;4973311;28;1190;-69
2021/05/25 02:32:45;;;;;;;;;;;19.70;57.20;;;;;;4972624;28;1117;-70
2021/05/25 02:35:10;;;;;;;;;;;19.80;57.30;;;;;;4972225;28;1135;-70
2021/05/25 02:37:36;;;;;;;;;;;19.80;57.30;;;;;;4973593;28;1119;-70
2021/05/25 02:40:01;;;;;;;;;;;19.80;57.30;;;;;;4971938;28;1528;-70
2021/05/25 02:42:27;;;;;;;;;;;19.80;57.30;;;;;;4973538;28;1977;-70
2021/05/25 02:44:52;;;;;;;;;;;19.80;57.30;;;;;;4972349;28;1194;-70
2021/05/25 02:47:18;;;;;;;;;;;19.80;57.30;;;;;;4972153;28;1070;-70
2021/05/25 02:49:43;;;;;;;;;;;19.80;57.30;;;;;;4973163;28;1273;-70
2021/05/25 02:52:09;;;;;;;;;;;19.70;57.30;;;;;;4973217;28;1128;-70
2021/05/25 02:54:34;;;;;;;;;;;19.80;57.30;;;;;;4972965;28;1116;-70
2021/05/25 02:57:00;;;;;;;;;;;19.70;57.30;;;;;;4972780;28;1147;-70
2021/05/25 02:59:25;;;;;;;;;;;19.80;57.30;;;;;;4973005;28;1785;-70
2021/05/25 03:01:50;;;;;;;;;;;19.80;57.40;;;;;;4973248;28;1894;-70
2021/05/25 03:04:16;;;;;;;;;;;19.80;57.40;;;;;;4972858;28;1084;-70
2021/05/25 03:06:41;;;;;;;;;;;19.70;57.30;;;;;;4972778;28;1193;-70
2021/05/25 03:09:07;;;;;;;;;;;19.80;57.40;;;;;;4974115;28;1368;-70
2021/05/25 03:11:32;;;;;;;;;;;19.80;57.40;;;;;;4977242;28;1135;-70
2021/05/25 03:13:58;;;;;;;;;;;19.80;57.40;;;;;;4977017;28;1053;-70
2021/05/25 03:16:23;;;;;;;;;;;19.80;57.40;;;;;;4972453;28;1077;-70
2021/05/25 03:18:49;;;;;;;;;;;19.80;57.40;;;;;;4972270;28;1295;-70
2021/05/25 03:21:14;;;;;;;;;;;19.80;57.40;;;;;;4972005;28;1186;-70
2021/05/25 03:23:39;;;;;;;;;;;19.80;57.40;;;;;;4976477;28;1965;-70
2021/05/25 03:26:05;;;;;;;;;;;19.80;58.00;;;;;;4975993;28;1073;-70
2021/05/25 03:28:30;;;;;;;;;;;19.80;57.50;;;;;;4976401;28;1033;-70
2021/05/25 03:30:56;;;;;;;;;;;19.80;57.50;;;;;;4976296;28;1322;-70
2021/05/25 03:33:21;;;;;;;;;;;19.80;57.50;;;;;;4976077;28;1065;-70
2021/05/25 03:35:47;;;;;;;;;;;19.70;57.40;;;;;;4975650;28;1064;-70
2021/05/25 03:38:12;;;;;;;;;;;19.70;57.20;;;;;;4976134;28;1049;-70
2021/05/25 03:40:38;;;;;;;;;;;19.80;57.00;;;;;;4976450;28;1296;-70
2021/05/25 03:43:03;;;;;;;;;;;19.70;57.00;;;;;;4976299;28;1975;-70
2021/05/25 03:45:28;;;;;;;;;;;19.80;57.10;;;;;;4975744;28;1108;-70
2021/05/25 03:47:54;;;;;;;;;;;19.80;57.10;;;;;;4975993;28;1156;-70
2021/05/25 03:50:19;;;;;;;;;;;19.90;57.00;;;;;;4976024;28;1209;-70
2021/05/25 03:52:46;;;;;;;;;;;20.00;57.00;;;;;;4976112;28;1112;-70
2021/05/25 04:00:41;;;;;;;;;;;20.20;56.50;;;;;;4976059;28;1246;-70
2021/05/25 04:03:06;;;;;;;;;;;20.30;56.30;;;;;;4976239;28;1961;-70
2021/05/25 04:05:31;;;;;;;;;;;20.40;56.10;;;;;;4976220;28;1137;-70
2021/05/25 04:07:57;;;;;;;;;;;20.40;56.00;;;;;;4976023;28;1203;-70
2021/05/25 04:10:22;;;;;;;;;;;20.50;55.80;;;;;;4975996;28;1222;-70
2021/05/25 04:12:48;;;;;;;;;;;20.60;55.70;;;;;;4975862;28;1187;-70
2021/05/25 04:15:13;;;;;;;;;;;20.60;55.60;;;;;;4974871;28;1068;-69
2021/05/25 04:17:41;;;;;;;;;;;20.70;55.50;;;;;;4974833;28;1104;-70
2021/05/25 04:20:08;;;;;;;;;;;20.70;55.40;;;;;;4970342;28;1275;-70
2021/05/25 04:22:33;;;;;;;;;;;20.80;55.30;;;;;;4973763;28;1953;-70
2021/05/25 04:24:58;;;;;;;;;;;20.80;55.20;;;;;;4975171;28;986;-70
2021/05/25 04:27:24;;;;;;;;;;;20.80;55.10;;;;;;4975076;28;1164;-70
2021/05/25 04:29:49;;;;;;;;;;;20.90;55.10;;;;;;4975065;28;1189;-70
2021/05/25 04:32:15;;;;;;;;;;;20.90;55.00;;;;;;4975275;28;1148;-70
2021/05/25 04:34:40;;;;;;;;;;;21.00;55.00;;;;;;4974508;28;1120;-70
2021/05/25 04:37:06;;;;;;;;;;;21.00;54.90;;;;;;4975431;28;1163;-70
2021/05/25 04:39:31;;;;;;;;;;;21.00;54.90;;;;;;4975088;28;1265;-70
2021/05/25 04:41:56;;;;;;;;;;;21.00;54.80;;;;;;4975258;28;1902;-70
2021/05/25 04:44:22;;;;;;;;;;;21.10;54.80;;;;;;4974812;28;1065;-70
2021/05/25 04:46:47;;;;;;;;;;;21.10;54.70;;;;;;4975108;28;1132;-70
2021/05/25 04:49:13;;;;;;;;;;;21.10;54.70;;;;;;4975278;28;1312;-70
2021/05/25 04:51:38;;;;;;;;;;;21.10;55.00;;;;;;4975380;28;1069;-70
2021/05/25 04:54:04;;;;;;;;;;;21.10;55.20;;;;;;4955648;28;1951;-68
2021/05/25 04:56:29;;;;;;;;;;;21.10;55.40;;;;;;4967207;28;1216;-70
2021/05/25 04:58:54;;;;;;;;;;;21.00;55.40;;;;;;4961602;28;1228;-68
2021/05/25 05:01:20;;;;;;;;;;;21.00;55.50;;;;;;4971923;28;1038;-68
2021/05/25 05:03:46;;;;;;;;;;;21.00;55.60;;;;;;4973723;28;1953;-68
2021/05/25 05:06:11;;;;;;;;;;;21.00;55.60;;;;;;4973289;28;1113;-68
2021/05/25 05:08:43;;;;;;;;;;;21.00;55.60;;;;;;4973292;28;1141;-68
2021/05/25 05:11:08;;;;;;;;;;;20.90;55.50;;;;;;4974137;28;1264;-70
2021/05/25 05:13:34;;;;;;;;;;;20.90;55.60;;;;;;4974265;28;1116;-70
2021/05/25 05:15:59;;;;;;;;;;;20.90;55.60;;;;;;4973790;28;1159;-70
2021/05/25 05:18:24;;;;;;;;;;;20.90;55.60;;;;;;4974508;28;1084;-70
2021/05/25 05:20:50;;;;;;;;;;;20.80;55.60;;;;;;4969391;28;1284;-70
2021/05/25 05:23:17;;;;;;;;;;;20.80;55.70;;;;;;4974407;28;1898;-71
2021/05/25 05:25:42;;;;;;;;;;;20.80;55.70;;;;;;4973430;28;1096;-70
2021/05/25 05:28:08;;;;;;;;;;;20.80;55.70;;;;;;4972938;28;1101;-70
2021/05/25 05:30:34;;;;;;;;;;;20.80;55.70;;;;;;4974013;28;1593;-70
2021/05/25 05:33:00;;;;;;;;;;;20.80;55.70;;;;;;4973192;28;1065;-70
2021/05/25 05:35:25;;;;;;;;;;;20.70;55.70;;;;;;4973198;28;1176;-70
2021/05/25 05:37:51;;;;;;;;;;;20.70;55.70;;;;;;4974444;28;1057;-70
2021/05/25 05:40:16;;;;;;;;;;;20.70;55.70;;;;;;4973959;28;1291;-71
2021/05/25 05:42:41;;;;;;;;;;;20.70;55.80;;;;;;4973964;28;1956;-70
2021/05/25 05:45:07;;;;;;;;;;;20.60;55.70;;;;;;4973195;28;1053;-70
2021/05/25 05:47:32;;;;;;;;;;;20.60;55.80;;;;;;4974048;28;1034;-70
2021/05/25 05:49:58;;;;;;;;;;;20.60;55.80;;;;;;4973862;28;1342;-70
2021/05/25 05:52:23;;;;;;;;;;;20.60;55.80;;;;;;4973614;28;1080;-70
2021/05/25 05:54:49;;;;;;;;;;;20.60;55.80;;;;;;4973816;28;1120;-70
2021/05/25 05:57:15;;;;;;;;;;;20.60;55.80;;;;;;4973783;28;1116;-70
2021/05/25 05:59:40;;;;;;;;;;;20.60;55.90;;;;;;4973688;28;1280;-70
2021/05/25 06:02:06;;;;;;;;;;;20.60;55.90;;;;;;4973615;28;1895;-70
2021/05/25 06:04:31;;;;;;;;;;;20.60;55.90;;;;;;4972352;28;1109;-70
2021/05/25 06:06:57;;;;;;;;;;;20.50;55.80;;;;;;4973312;28;1049;-71
2021/05/25 06:09:22;;;;;;;;;;;20.50;55.80;;;;;;4973523;28;1224;-70
2021/05/25 06:11:52;;;;;;;;;;;20.50;55.70;;;;;;4973352;28;1159;-70
2021/05/25 06:14:18;;;;;;;;;;;20.50;55.70;;;;;;4973996;28;1124;-70
2021/05/25 06:16:43;;;;;;;;;;;20.50;55.60;;;;;;4964305;28;2176;-70
2021/05/25 06:19:09;;;;;;;;;;;20.50;55.50;;;;;;4969999;28;1833;-70
2021/05/25 06:21:35;;;;;;;;;;;20.50;55.60;;;;;;4965246;28;1133;-71
2021/05/25 06:24:00;;;;;;;;;;;20.50;55.40;;;;;;4969904;28;1906;-70
2021/05/25 06:26:25;;;;;;;;;;;20.50;55.30;;;;;;4969161;28;1134;-71
2021/05/25 06:28:51;;;;;;;;;;;20.40;55.30;;;;;;4969778;28;1302;-70
2021/05/25 06:31:16;;;;;;;;;;;20.40;55.20;;;;;;4972800;28;1504;-70
2021/05/25 06:33:42;;;;;;;;;;;20.40;55.10;;;;;;4973823;28;1112;-70
2021/05/25 06:36:07;;;;;;;;;;;20.40;54.90;;;;;;4972713;28;1057;-70
2021/05/25 06:38:33;;;;;;;;;;;20.40;54.90;;;;;;4964552;28;1147;-69
2021/05/25 06:40:58;;;;;;;;;;;20.40;54.80;;;;;;4973259;28;1212;-71
2021/05/25 06:43:23;;;;;;;;;;;20.40;54.80;;;;;;4974600;28;1970;-70
2021/05/25 06:45:49;;;;;;;;;;;20.40;54.60;;;;;;4976636;28;1085;-69
2021/05/25 06:48:14;;;;;;;;;;;20.40;54.40;;;;;;4976879;28;1144;-69
2021/05/25 06:50:40;;;;;;;;;;;20.30;54.30;;;;;;4976045;28;1256;-70
2021/05/25 06:53:05;;;;;;;;;;;20.30;54.00;;;;;;4976060;28;1140;-70
2021/05/25 06:55:31;;;;;;;;;;;20.30;54.00;;;;;;4977216;28;1053;-70
2021/05/25 06:57:57;;;;;;;;;;;20.30;53.60;;;;;;4977213;28;1073;-69
2021/05/25 07:00:22;;;;;;;;;;;20.30;54.00;;;;;;4977186;28;1272;-70
2021/05/25 07:02:48;;;;;;;;;;;20.30;53.60;;;;;;4976836;28;1954;-70
2021/05/25 07:05:13;;;;;;;;;;;20.30;53.70;;;;;;4976292;28;1089;-70
2021/05/25 07:07:39;;;;;;;;;;;20.30;53.70;;;;;;4975631;28;1092;-70
2021/05/25 07:10:05;;;;;;;;;;;20.30;53.80;;;;;;4976006;28;1214;-70
2021/05/25 07:12:30;;;;;;;;;;;20.30;53.80;;;;;;4974487;28;1324;-71
2021/05/25 07:14:55;;;;;;;;;;;20.30;53.90;;;;;;4974840;28;1307;-70
2021/05/25 07:17:21;;;;;;;;;;;20.30;54.00;;;;;;4975225;28;1434;-68
2021/05/25 07:19:46;;;;;;;;;;;20.30;54.00;;;;;;4974327;28;1293;-70
2021/05/25 07:22:12;;;;;;;;;;;20.30;54.50;;;;;;4973515;28;1902;-69
2021/05/25 07:24:37;;;;;;;;;;;20.40;55.20;;;;;;4973902;28;1205;-69
2021/05/25 07:27:03;;;;;;;;;;;20.30;55.30;;;;;;4974282;28;1272;-68
2021/05/25 07:29:28;;;;;;;;;;;20.40;55.30;;;;;;4974057;28;1227;-68
2021/05/25 07:31:53;;;;;;;;;;;20.40;55.50;;;;;;4974832;28;1268;-68
2021/05/25 07:34:19;;;;;;;;;;;20.40;55.60;;;;;;4972721;28;1870;-69
2021/05/25 07:36:46;;;;;;;;;;;20.40;55.80;;;;;;4973532;28;1082;-69
2021/05/25 07:39:12;;;;;;;;;;;20.40;55.90;;;;;;4973855;28;1385;-72
2021/05/25 07:41:38;;;;;;;;;;;20.50;56.00;;;;;;4973992;28;1279;-70
2021/05/25 07:44:03;;;;;;;;;;;20.50;56.20;;;;;;4967213;28;1906;-71
2021/05/25 07:46:30;;;;;;;;;;;20.50;56.30;;;;;;4972185;28;1136;-70
2021/05/25 07:48:55;;;;;;;;;;;20.50;56.40;;;;;;4976010;28;1273;-69
2021/05/25 07:51:21;;;;;;;;;;;20.50;56.40;;;;;;4968246;28;1415;-69
2021/05/25 07:53:46;;;;;;;;;;;20.50;56.40;;;;;;4974926;28;1440;-72
2021/05/25 07:56:12;;;;;;;;;;;20.50;56.40;;;;;;4975618;28;1560;-71
2021/05/25 07:58:37;;;;;;;;;;;20.50;56.40;;;;;;4975876;28;1674;-71
2021/05/25 08:01:03;;;;;;;;;;;20.50;56.60;;;;;;4975844;28;1668;-70
2021/05/25 08:03:28;;;;;;;;;;;20.50;56.60;;;;;;4976043;28;1898;-70
2021/05/25 08:05:54;;;;;;;;;;;20.50;56.60;;;;;;4975736;28;1422;-71
2021/05/25 08:08:19;;;;;;;;;;;20.50;56.70;;;;;;4974814;28;1382;-71
2021/05/25 08:10:45;;;;;;;;;;;20.50;56.70;;;;;;4975665;28;1630;-71
2021/05/25 08:13:10;;;;;;;;;;;20.50;56.80;;;;;;4975867;28;1638;-71
2021/05/25 08:15:38;;;;;;;;;;;20.50;56.80;;;;;;4963424;28;2335;-71
2021/05/25 08:20:48;;;;;;;;;;;20.50;56.90;;;;;;4970641;28;1391;-71
2021/05/25 08:23:13;;;;;;;;;;;20.50;57.00;;;;;;4967200;28;1919;-71
2021/05/25 08:25:40;;;;;;;;;;;20.50;57.10;;;;;;4975053;28;1404;-71
2021/05/25 08:28:06;;;;;;;;;;;20.50;57.10;;;;;;4968129;28;1654;-71
2021/05/25 08:30:32;;;;;;;;;;;20.50;57.10;;;;;;4968642;28;1421;-71
2021/05/25 08:32:57;;;;;;;;;;;20.50;57.20;;;;;;4964431;28;1592;-71
2021/05/25 08:35:23;;;;;;;;;;;20.50;57.30;;;;;;4973426;28;1359;-70
2021/05/25 08:37:53;;;;;;;;;;;20.50;57.30;;;;;;4974174;28;1699;-69
2021/05/25 08:40:18;;;;;;;;;;;20.50;57.40;;;;;;4974490;28;1391;-69
2021/05/25 08:42:46;;;;;;;;;;;20.50;57.60;;;;;;4970696;28;2268;-71
2021/05/25 08:45:12;;;;;;;;;;;20.50;57.60;;;;;;4972258;28;1692;-71
2021/05/25 08:47:37;;;;;;;;;;;20.50;57.60;;;;;;4967962;28;1552;-69
2021/05/25 08:50:06;;;;;;;;;;;20.50;57.60;;;;;;4975120;28;1217;-68
2021/05/25 08:52:32;;;;;;;;;;;20.50;57.70;;;;;;4973802;28;1751;-68
2021/05/25 08:54:57;;;;;;;;;;;20.50;57.70;;;;;;4974317;28;1685;-68
2021/05/25 08:57:23;;;;;;;;;;;20.50;57.80;;;;;;4974855;28;1367;-69
2021/05/25 08:59:48;;;;;;;;;;;20.50;57.80;;;;;;4974862;28;1281;-69
2021/05/25 09:02:14;;;;;;;;;;;20.50;57.90;;;;;;4973967;28;1902;-72
2021/05/25 09:05:08;;;;;;;;;;;20.50;57.90;;;;;;4973613;28;1683;-68
2021/05/25 09:07:35;;;;;;;;;;;20.50;58.00;;;;;;4965846;28;1771;-68
2021/05/25 09:10:00;;;;;;;;;;;20.50;58.00;;;;;;4973423;28;1514;-71
2021/05/25 09:12:31;;;;;;;;;;;20.50;58.10;;;;;;4974911;28;1732;-71
2021/05/25 09:14:57;;;;;;;;;;;20.50;58.10;;;;;;4974141;28;1330;-71
2021/05/25 09:17:24;;;;;;;;;;;20.50;58.20;;;;;;4974890;28;1558;-71
2021/05/25 09:19:50;;;;;;;;;;;20.50;58.20;;;;;;4967919;28;2332;-68
2021/05/25 09:22:34;;;;;;;;;;;20.50;58.30;;;;;;4972471;28;1906;-71
2021/05/25 09:25:14;;;;;;;;;;;20.50;58.30;;;;;;4963758;28;1555;-71
2021/05/25 09:27:41;;;;;;;;;;;20.40;58.30;;;;;;4960294;28;1863;-70
2021/05/25 09:30:10;;;;;;;;;;;20.50;58.40;;;;;;4966932;28;1680;-70
2021/05/25 09:32:39;;;;;;;;;;;20.50;58.50;;;;;;4961910;28;1493;-70
2021/05/25 09:35:05;;;;;;;;;;;20.50;58.40;;;;;;4966964;28;1354;-71
2021/05/25 09:37:31;;;;;;;;;;;20.50;58.40;;;;;;4973676;28;1374;-71
2021/05/25 09:39:56;;;;;;;;;;;20.50;58.50;;;;;;4973074;28;1367;-71
2021/05/25 09:42:22;;;;;;;;;;;20.50;58.50;;;;;;4956715;28;1962;-71
2021/05/25 09:44:57;;;;;;;;;;;20.40;58.50;;;;;;4971200;28;2205;-71
2021/05/25 09:47:35;;;;;;;;;;;20.50;58.50;;;;;;4972002;28;1274;-70
2021/05/25 09:50:01;;;;;;;;;;;20.50;58.60;;;;;;4964454;28;1289;-71
2021/05/25 09:52:26;;;;;;;;;;;20.50;58.60;;;;;;4955700;28;1136;-71
2021/05/25 09:55:08;;;;;;;;;;;20.50;58.70;;;;;;4969735;28;1141;-70
2021/05/25 09:57:45;;;;;;;;;;;20.50;59.30;;;;;;4974347;28;1088;-69
2021/05/25 10:00:31;;;;;;;;;;;20.50;58.90;;;;;;4959326;28;1665;-69
2021/05/25 10:03:25;;;;;;;;;;;20.50;58.90;;;;;;4971274;28;1989;-69
2021/05/25 10:05:51;;;;;;;;;;;20.50;58.90;;;;;;4970523;28;1093;-71
2021/05/25 10:08:18;;;;;;;;;;;20.50;59.00;;;;;;4972842;28;1065;-70
2021/05/25 10:10:43;;;;;;;;;;;20.50;59.00;;;;;;4970904;28;1996;-70
2021/05/25 10:13:09;;;;;;;;;;;20.50;59.00;;;;;;4970192;28;1283;-70
2021/05/25 10:15:34;;;;;;;;;;;20.50;59.00;;;;;;4966992;28;1901;-69
2021/05/25 10:20:28;;;;;;;;;;;20.50;59.00;;;;;;4968625;28;1320;-69
2021/05/25 10:22:54;;;;;;;;;;;20.50;59.10;;;;;;4971807;28;1907;-67
2021/05/25 10:25:19;;;;;;;;;;;20.50;59.10;;;;;;4964671;28;1130;-68
2021/05/25 10:27:45;;;;;;;;;;;20.50;59.10;;;;;;4966073;28;1112;-68
2021/05/25 10:30:26;;;;;;;;;;;20.50;59.10;;;;;;4968056;28;1302;-69
2021/05/25 10:32:52;;;;;;;;;;;20.50;59.10;;;;;;4969676;28;1870;-70
2021/05/25 10:35:19;;;;;;;;;;;20.50;59.10;;;;;;4968814;28;1157;-70
2021/05/25 10:38:03;;;;;;;;;;;20.50;59.10;;;;;;4967139;28;2246;-70
2021/05/25 10:40:37;;;;;;;;;;;20.50;59.10;;;;;;4961816;28;1304;-70
2021/05/25 10:43:22;;;;;;;;;;;20.50;59.10;;;;;;4968248;28;1964;-70
2021/05/25 10:45:47;;;;;;;;;;;20.50;59.50;;;;;;4971969;28;1014;-70
2021/05/25 10:48:14;;;;;;;;;;;20.50;59.30;;;;;;4972721;28;1128;-70
2021/05/25 10:50:47;;;;;;;;;;;20.50;59.30;;;;;;4972800;28;1193;-70
2021/05/25 10:53:12;;;;;;;;;;;20.50;59.30;;;;;;4971528;28;1269;-70
2021/05/25 10:55:38;;;;;;;;;;;20.50;59.30;;;;;;4971516;28;1108;-72
2021/05/25 10:58:28;;;;;;;;;;;20.50;59.30;;;;;;4971939;28;1094;-71
2021/05/25 11:00:54;;;;;;;;;;;20.50;59.40;;;;;;4973335;28;1267;-72
2021/05/25 11:03:21;;;;;;;;;;;20.50;59.40;;;;;;4972821;28;1898;-72
2021/05/25 11:05:49;;;;;;;;;;;20.50;59.40;;;;;;4971624;28;1120;-67
2021/05/25 11:08:15;;;;;;;;;;;20.50;59.40;;;;;;4971571;28;1093;-68
2021/05/25 11:10:41;;;;;;;;;;;20.50;59.40;;;;;;4972755;28;1217;-68
2021/05/25 11:13:20;;;;;;;;;;;20.40;59.50;;;;;;4972279;28;1077;-72
2021/05/25 11:16:21;;;;;;;;;;;20.40;59.40;;;;;;4972179;28;1033;-69
2021/05/25 11:18:58;;;;;;;;;;;20.40;59.50;;;;;;4971756;28;1209;-69
2021/05/25 11:21:39;;;;;;;;;;;20.40;59.50;;;;;;4966391;28;1105;-69
2021/05/25 11:24:26;;;;;;;;;;;20.40;59.50;;;;;;4972259;28;1906;-71
2021/05/25 11:26:52;;;;;;;;;;;20.40;59.60;;;;;;4971910;28;1120;-71
2021/05/25 11:29:18;;;;;;;;;;;20.40;59.60;;;;;;4973763;28;1303;-71
2021/05/25 11:31:43;;;;;;;;;;;20.40;59.70;;;;;;4959235;28;1178;-71
2021/05/25 11:34:09;;;;;;;;;;;20.40;59.70;;;;;;4975347;28;1105;-71
2021/05/25 11:36:35;;;;;;;;;;;20.40;59.80;;;;;;4976092;28;1056;-71
2021/05/25 11:39:07;;;;;;;;;;;20.40;59.90;;;;;;4975562;28;1336;-72
2021/05/25 11:41:33;;;;;;;;;;;20.40;59.90;;;;;;4975135;28;1089;-71
2021/05/25 11:44:02;;;;;;;;;;;20.40;60.00;;;;;;4976119;28;1969;-71
2021/05/25 11:46:39;;;;;;;;;;;20.40;60.10;;;;;;4976064;28;1077;-71
2021/05/25 11:49:05;;;;;;;;;;;20.40;60.10;;;;;;4976254;28;1311;-72
2021/05/25 11:51:30;;;;;;;;;;;20.40;60.10;;;;;;4975965;28;1160;-71
2021/05/25 11:54:05;;;;;;;;;;;20.50;60.10;;;;;;4976229;28;1061;-69
2021/05/25 11:56:31;;;;;;;;;;;20.50;60.10;;;;;;4974265;28;1138;-70
2021/05/25 11:58:56;;;;;;;;;;;20.50;60.10;;;;;;4976150;28;1362;-70
2021/05/25 12:01:22;;;;;;;;;;;20.50;60.10;;;;;;4976004;28;1183;-72
2021/05/25 12:03:49;;;;;;;;;;;20.50;60.10;;;;;;4974540;28;1950;-72
2021/05/25 12:06:14;;;;;;;;;;;20.50;60.10;;;;;;4974736;28;1286;-70
2021/05/25 12:08:40;;;;;;;;;;;20.50;60.10;;;;;;4974635;28;1078;-69
2021/05/25 12:11:05;;;;;;;;;;;20.50;60.10;;;;;;4974324;28;1421;-70
2021/05/25 12:13:32;;;;;;;;;;;20.50;60.20;;;;;;4975738;28;1055;-70
2021/05/25 12:15:57;;;;;;;;;;;20.50;60.20;;;;;;4973636;28;1894;-70
2021/05/25 12:18:24;;;;;;;;;;;20.50;60.20;;;;;;4974184;28;1438;-70
2021/05/25 12:20:51;;;;;;;;;;;20.50;60.30;;;;;;4975657;28;1484;-71
2021/05/25 12:23:19;;;;;;;;;;;20.50;60.30;;;;;;4982245;28;2178;-72
2021/05/25 12:25:50;;;;;;;;;;;20.50;60.30;;;;;;4973674;28;1306;-72
2021/05/25 12:28:19;;;;;;;;;;;20.50;60.40;;;;;;4989189;28;1505;-73
2021/05/25 12:30:45;;;;;;;;;;;20.40;60.30;;;;;;4967438;28;1794;-72
2021/05/25 12:33:21;;;;;;;;;;;20.40;60.30;;;;;;4975713;28;1369;-72
2021/05/25 12:35:46;;;;;;;;;;;20.50;60.30;;;;;;4966862;28;1481;-72
2021/05/25 12:38:13;;;;;;;;;;;20.40;60.30;;;;;;4973996;28;1564;-72
2021/05/25 12:40:39;;;;;;;;;;;20.40;60.40;;;;;;4974246;28;1412;-72
2021/05/25 12:43:17;;;;;;;;;;;20.40;60.30;;;;;;4975538;28;1961;-72
2021/05/25 12:45:44;;;;;;;;;;;20.40;60.30;;;;;;4974277;28;1371;-72
2021/05/25 12:48:10;;;;;;;;;;;20.40;61.10;;;;;;4975222;28;1536;-73
2021/05/25 12:50:40;;;;;;;;;;;20.40;60.40;;;;;;4975060;28;1606;-72
2021/05/25 12:53:18;;;;;;;;;;;20.40;60.40;;;;;;4974174;28;1482;-71
2021/05/25 12:55:53;;;;;;;;;;;20.40;60.50;;;;;;4974220;28;1658;-71
2021/05/25 12:58:37;;;;;;;;;;;20.40;61.20;;;;;;4975113;28;1407;-72
2021/05/25 13:01:22;;;;;;;;;;;20.40;60.50;;;;;;4974236;28;1628;-73
2021/05/25 13:03:47;;;;;;;;;;;20.40;60.50;;;;;;4972758;28;1898;-72
2021/05/25 13:06:26;;;;;;;;;;;20.40;60.40;;;;;;4973902;28;1625;-71
2021/05/25 13:08:56;;;;;;;;;;;20.40;60.60;;;;;;4973748;28;1586;-71
2021/05/25 13:11:22;;;;;;;;;;;20.50;60.80;;;;;;4973312;28;1556;-71
2021/05/25 13:13:49;;;;;;;;;;;20.40;60.90;;;;;;4974139;28;1586;-71
2021/05/25 13:16:18;;;;;;;;;;;20.40;60.90;;;;;;4974175;28;1564;-72
2021/05/25 13:18:44;;;;;;;;;;;20.40;60.90;;;;;;4974560;28;1355;-73
2021/05/25 13:21:09;;;;;;;;;;;20.40;60.90;;;;;;4967105;28;1964;-72
2021/05/25 13:23:35;;;;;;;;;;;20.40;60.90;;;;;;4970855;28;2004;-72
2021/05/25 13:28:52;;;;;;;;;;;20.40;60.90;;;;;;4973584;28;957;-73
2021/05/25 13:31:18;;;;;;;;;;;20.40;60.90;;;;;;4949228;28;1227;-72
2021/05/25 13:33:43;;;;;;;;;;;20.40;60.90;;;;;;4972949;28;1093;-73
2021/05/25 13:36:09;;;;;;;;;;;20.40;61.00;;;;;;4973269;28;1139;-73
2021/05/25 13:38:34;;;;;;;;;;;20.40;60.90;;;;;;4973887;28;1163;-72
2021/05/25 13:41:00;;;;;;;;;;;20.40;60.90;;;;;;4974232;28;1220;-72
2021/05/25 13:43:25;;;;;;;;;;;20.40;60.90;;;;;;4973490;28;1922;-72
2021/05/25 13:45:50;;;;;;;;;;;20.40;60.90;;;;;;4973555;28;1085;-72
2021/05/25 13:48:16;;;;;;;;;;;20.40;60.90;;;;;;4974320;28;1108;-72
2021/05/25 13:50:41;;;;;;;;;;;20.40;60.90;;;;;;4974007;28;1145;-73
2021/05/25 13:53:07;;;;;;;;;;;20.40;60.90;;;;;;4973597;28;1081;-72
2021/05/25 13:55:35;;;;;;;;;;;20.40;60.90;;;;;;4972464;28;1045;-72
2021/05/25 13:58:02;;;;;;;;;;;20.40;61.00;;;;;;4973778;28;1135;-72
2021/05/25 14:00:55;;;;;;;;;;;20.40;61.00;;;;;;4973374;28;1303;-72
2021/05/25 14:03:20;;;;;;;;;;;20.40;61.10;;;;;;4973744;28;1902;-72
2021/05/25 14:05:46;;;;;;;;;;;20.40;61.20;;;;;;4971923;28;1089;-73
2021/05/25 14:08:11;;;;;;;;;;;20.40;61.20;;;;;;4973777;28;1120;-72
2021/05/25 14:10:38;;;;;;;;;;;20.40;61.10;;;;;;4973576;28;1294;-72
2021/05/25 14:13:03;;;;;;;;;;;20.40;61.90;;;;;;4973596;28;1143;-72
2021/05/25 14:15:29;;;;;;;;;;;20.40;61.20;;;;;;4972218;28;1263;-72
2021/05/25 14:17:54;;;;;;;;;;;20.40;61.20;;;;;;4972992;28;1127;-72
2021/05/25 14:20:20;;;;;;;;;;;20.40;61.20;;;;;;4968416;28;1324;-72
2021/05/25 14:22:45;;;;;;;;;;;20.40;61.10;;;;;;4973310;28;1907;-73
2021/05/25 14:25:11;;;;;;;;;;;20.40;61.10;;;;;;4972681;28;981;-73
2021/05/25 14:27:36;;;;;;;;;;;20.40;61.20;;;;;;4973588;28;1080;-72
2021/05/25 14:30:02;;;;;;;;;;;20.40;61.10;;;;;;4973253;28;1260;-72
2021/05/25 14:32:28;;;;;;;;;;;20.40;61.10;;;;;;4973009;28;1101;-72
2021/05/25 14:34:53;;;;;;;;;;;20.40;61.20;;;;;;4972298;28;1085;-72
2021/05/25 14:37:19;;;;;;;;;;;20.40;61.20;;;;;;4972354;28;1129;-72
2021/05/25 14:39:44;;;;;;;;;;;20.40;61.20;;;;;;4973367;28;1333;-72
2021/05/25 14:42:10;;;;;;;;;;;20.40;61.20;;;;;;4973008;28;1132;-71
2021/05/25 14:44:35;;;;;;;;;;;20.40;61.10;;;;;;4967494;28;1967;-71